createdAt,value
2022-12-22T00:00:19.037Z,20.9900
2022-12-22T00:01:21.374Z,20.9800
2022-12-22T00:02:23.790Z,20.9900
2022-12-22T00:03:26.139Z,20.9800
2022-12-22T00:04:26.216Z,20.9800
2022-12-22T00:05:28.560Z,20.9900
2022-12-22T00:06:31.065Z,20.9800
2022-12-22T00:07:33.320Z,20.9800
2022-12-22T00:08:33.534Z,20.9900
2022-12-22T00:09:35.915Z,20.9900
2022-12-22T00:10:38.351Z,20.9900
2022-12-22T00:11:40.777Z,21.0000
2022-12-22T00:12:40.987Z,21.0000
2022-12-22T00:13:43.373Z,21.0000
2022-12-22T00:14:45.748Z,21.0000
2022-12-22T00:15:50.234Z,20.9800
2022-12-22T00:16:05.294Z,20.9800
2022-12-22T00:17:07.791Z,20.9800
2022-12-22T00:18:10.032Z,20.9800
2022-12-22T00:19:12.415Z,20.9900
2022-12-22T00:20:18.515Z,20.9900
2022-12-22T00:21:14.953Z,20.9900
2022-12-22T00:22:17.296Z,21.0000
2022-12-22T00:23:19.625Z,21.0000
2022-12-22T00:24:22.027Z,21.0100
2022-12-22T00:25:24.374Z,21.0000
2022-12-22T00:26:24.534Z,21.0000
2022-12-22T00:27:26.930Z,21.0000
2022-12-22T00:28:29.225Z,21.0100
2022-12-22T00:29:31.582Z,21.0200
2022-12-22T00:30:34.012Z,21.0300
2022-12-22T00:31:34.131Z,21.0100
2022-12-22T00:32:36.578Z,21.0000
2022-12-22T00:33:38.808Z,21.0100
2022-12-22T00:34:41.141Z,21.0000
2022-12-22T00:35:43.485Z,21.0000
2022-12-22T00:36:45.840Z,21.0000
2022-12-22T00:38:44.226Z,20.9900
2022-12-22T00:39:46.402Z,20.9900
2022-12-22T00:40:48.636Z,21.0000
2022-12-22T00:41:50.856Z,20.9900
2022-12-22T00:42:53.104Z,20.9900
2022-12-22T00:43:55.453Z,20.9800
2022-12-22T00:44:57.675Z,20.9800
2022-12-22T00:46:00.092Z,20.9800
2022-12-22T00:47:02.254Z,20.9900
2022-12-22T00:48:02.417Z,20.9800
2022-12-22T00:49:04.826Z,20.9800
2022-12-22T00:50:07.008Z,20.9700
2022-12-22T00:51:09.327Z,20.9600
2022-12-22T00:52:11.688Z,20.9600
2022-12-22T00:53:11.905Z,20.9700
2022-12-22T00:54:14.286Z,20.9800
2022-12-22T00:55:16.638Z,20.9800
2022-12-22T00:56:18.979Z,20.9900
2022-12-22T00:57:21.346Z,20.9900
2022-12-22T00:58:21.548Z,20.9900
2022-12-22T00:59:24.014Z,21.0000
2022-12-22T01:00:26.258Z,20.9800
2022-12-22T01:01:28.759Z,20.9800
2022-12-22T01:02:31.318Z,20.9800
2022-12-22T01:03:31.406Z,20.9900
2022-12-22T01:04:33.768Z,20.9700
2022-12-22T01:05:36.021Z,20.9800
2022-12-22T01:06:38.321Z,20.9900
2022-12-22T01:07:38.525Z,21.0100
2022-12-22T01:08:40.838Z,21.0000
2022-12-22T01:09:43.181Z,21.0000
2022-12-22T01:10:45.527Z,20.9800
2022-12-22T01:11:47.877Z,20.9600
2022-12-22T01:12:50.267Z,20.9600
2022-12-22T01:13:52.638Z,20.9800
2022-12-22T01:14:55.067Z,20.9800
2022-12-22T01:15:57.437Z,20.9700
2022-12-22T01:16:57.646Z,20.9800
2022-12-22T01:18:00.037Z,20.9800
2022-12-22T01:19:02.415Z,21.0000
2022-12-22T01:20:04.823Z,21.0000
2022-12-22T01:21:52.379Z,20.9800
2022-12-22T01:22:54.630Z,20.9800
2022-12-22T01:23:56.969Z,21.0000
2022-12-22T01:24:59.344Z,20.9900
2022-12-22T01:25:59.599Z,21.0000
2022-12-22T01:27:01.986Z,21.0300
2022-12-22T01:28:04.355Z,21.0300
2022-12-22T01:29:06.764Z,21.0000
2022-12-22T01:30:07.003Z,21.0000
2022-12-22T01:31:43.966Z,20.9500
2022-12-22T01:32:44.120Z,20.9400
2022-12-22T01:33:46.439Z,20.9700
2022-12-22T01:34:47.676Z,20.9600
2022-12-22T01:35:49.036Z,20.9600
2022-12-22T01:36:49.362Z,20.9500
2022-12-22T01:37:51.652Z,20.9600
2022-12-22T01:38:53.994Z,20.9700
2022-12-22T01:39:56.356Z,20.9600
2022-12-22T01:40:56.555Z,20.9700
2022-12-22T01:41:58.953Z,20.9900
2022-12-22T01:43:01.279Z,20.9900
2022-12-22T01:44:03.669Z,20.9900
2022-12-22T01:45:06.034Z,20.9800
2022-12-22T01:46:06.380Z,20.9900
2022-12-22T01:47:08.672Z,20.9900
2022-12-22T01:48:11.020Z,20.9800
2022-12-22T01:49:13.408Z,20.9900
2022-12-22T01:50:13.638Z,21.0100
2022-12-22T01:51:16.027Z,21.0100
2022-12-22T01:52:18.432Z,20.9900
2022-12-22T01:53:20.818Z,21.0000
2022-12-22T01:54:23.195Z,20.9900
2022-12-22T01:55:23.452Z,20.9800
2022-12-22T01:56:25.881Z,20.9900
2022-12-22T01:57:28.324Z,20.9900
2022-12-22T01:58:30.677Z,20.9700
2022-12-22T01:59:00.824Z,20.9700
2022-12-22T02:00:03.309Z,20.9700
2022-12-22T02:01:05.671Z,20.9800
2022-12-22T02:02:05.893Z,20.9900
2022-12-22T02:03:08.180Z,20.9800
2022-12-22T02:04:10.535Z,20.9800
2022-12-22T02:05:12.967Z,20.9900
2022-12-22T02:06:13.247Z,20.9900
2022-12-22T02:07:15.664Z,20.9800
2022-12-22T02:08:18.194Z,20.9800
2022-12-22T02:09:20.498Z,20.9800
2022-12-22T02:10:20.687Z,20.9700
2022-12-22T02:11:22.974Z,20.9600
2022-12-22T02:12:25.299Z,20.9700
2022-12-22T02:13:27.675Z,20.9800
2022-12-22T02:14:30.611Z,20.9900
2022-12-22T02:15:30.207Z,21.0000
2022-12-22T02:16:32.632Z,21.0000
2022-12-22T02:17:34.875Z,20.9900
2022-12-22T02:18:37.247Z,20.9800
2022-12-22T02:19:39.542Z,20.9800
2022-12-22T02:20:39.710Z,20.9600
2022-12-22T02:21:42.062Z,20.9600
2022-12-22T02:22:44.390Z,20.9600
2022-12-22T02:23:46.810Z,20.9700
2022-12-22T02:24:49.220Z,20.9700
2022-12-22T02:25:49.438Z,20.9700
2022-12-22T02:26:51.842Z,21.0100
2022-12-22T02:27:54.267Z,20.9900
2022-12-22T02:28:56.737Z,20.9800
2022-12-22T02:29:56.915Z,20.9600
2022-12-22T02:30:59.391Z,20.9700
2022-12-22T02:32:01.732Z,20.9600
2022-12-22T02:33:09.546Z,20.9600
2022-12-22T02:34:06.629Z,20.9500
2022-12-22T02:35:06.875Z,20.9500
2022-12-22T02:36:07.151Z,20.9600
2022-12-22T02:37:07.426Z,20.9700
2022-12-22T02:38:09.861Z,20.9800
2022-12-22T02:39:10.163Z,20.9700
2022-12-22T02:40:12.587Z,20.9800
2022-12-22T02:41:14.987Z,20.9700
2022-12-22T02:42:17.373Z,20.9800
2022-12-22T02:43:17.615Z,20.9600
2022-12-22T02:44:20.021Z,20.9500
2022-12-22T02:45:22.401Z,20.9600
2022-12-22T02:46:24.849Z,20.9800
2022-12-22T02:47:25.060Z,20.9600
2022-12-22T02:48:27.518Z,20.9600
2022-12-22T02:49:29.951Z,20.9500
2022-12-22T02:50:32.277Z,20.9600
2022-12-22T02:51:32.480Z,20.9700
2022-12-22T02:52:34.857Z,20.9800
2022-12-22T02:53:37.236Z,20.9700
2022-12-22T02:54:39.600Z,20.9800
2022-12-22T02:55:41.952Z,20.9700
2022-12-22T02:56:42.130Z,20.9600
2022-12-22T02:57:44.507Z,20.9800
2022-12-22T02:58:46.847Z,20.9700
2022-12-22T02:59:49.196Z,20.9800
2022-12-22T03:00:49.434Z,20.9700
2022-12-22T03:01:52.077Z,20.9800
2022-12-22T03:02:54.515Z,20.9800
2022-12-22T03:03:56.765Z,20.9700
2022-12-22T03:04:59.010Z,20.9700
2022-12-22T03:05:59.201Z,20.9700
2022-12-22T03:06:22.983Z,20.9700
2022-12-22T03:07:24.158Z,20.9700
2022-12-22T03:08:25.565Z,20.9700
2022-12-22T03:09:27.827Z,20.9500
2022-12-22T03:10:30.173Z,20.9700
2022-12-22T03:11:32.544Z,20.9500
2022-12-22T03:12:32.743Z,20.9700
2022-12-22T03:13:35.130Z,20.9900
2022-12-22T03:14:37.497Z,20.9900
2022-12-22T03:15:37.800Z,20.9700
2022-12-22T03:16:40.279Z,20.9800
2022-12-22T03:17:42.591Z,20.9700
2022-12-22T03:18:44.948Z,20.9700
2022-12-22T03:19:45.173Z,20.9800
2022-12-22T03:20:47.556Z,20.9900
2022-12-22T03:21:49.899Z,20.9900
2022-12-22T03:22:52.259Z,20.9800
2022-12-22T03:23:54.615Z,20.9800
2022-12-22T03:24:54.824Z,20.9800
2022-12-22T03:27:14.728Z,20.9600
2022-12-22T03:28:16.936Z,20.9800
2022-12-22T03:29:19.253Z,20.9800
2022-12-22T03:30:19.478Z,20.9900
2022-12-22T03:31:21.861Z,20.9800
2022-12-22T03:32:24.187Z,20.9600
2022-12-22T03:33:26.557Z,20.9700
2022-12-22T03:34:28.953Z,21.0000
2022-12-22T03:35:29.218Z,21.0400
2022-12-22T03:36:31.625Z,21.0400
2022-12-22T03:37:35.869Z,21.0400
2022-12-22T03:38:34.311Z,21.0000
2022-12-22T03:39:36.743Z,20.9800
2022-12-22T03:40:39.059Z,20.9900
2022-12-22T03:41:41.452Z,21.0000
2022-12-22T03:42:43.880Z,21.0000
2022-12-22T03:43:44.042Z,21.0000
2022-12-22T03:44:46.385Z,20.9800
2022-12-22T03:45:48.747Z,20.9800
2022-12-22T03:46:51.199Z,20.9800
2022-12-22T03:47:53.506Z,20.9800
2022-12-22T03:48:53.640Z,20.9900
2022-12-22T03:49:55.974Z,20.9900
2022-12-22T03:50:58.304Z,21.0000
2022-12-22T03:52:00.656Z,20.9800
2022-12-22T03:53:03.028Z,20.9800
2022-12-22T03:54:03.201Z,20.9700
2022-12-22T03:55:05.554Z,20.9600
2022-12-22T03:56:08.283Z,20.9600
2022-12-22T03:57:10.218Z,20.9700
2022-12-22T03:58:12.631Z,20.9700
2022-12-22T03:59:12.778Z,20.9800
2022-12-22T04:00:15.148Z,20.9800
2022-12-22T04:01:17.551Z,20.9600
2022-12-22T04:02:20.025Z,20.9600
2022-12-22T04:03:22.438Z,20.9500
2022-12-22T04:04:24.555Z,20.9600
2022-12-22T04:05:26.892Z,20.9500
2022-12-22T04:06:29.255Z,20.9600
2022-12-22T04:07:31.618Z,20.9500
2022-12-22T04:08:31.792Z,20.9500
2022-12-22T04:09:34.075Z,20.9400
2022-12-22T04:10:36.418Z,20.9400
2022-12-22T04:11:38.745Z,20.9500
2022-12-22T04:12:41.117Z,20.9500
2022-12-22T04:13:41.387Z,20.9400
2022-12-22T04:14:43.639Z,20.9500
2022-12-22T04:15:45.985Z,20.9500
2022-12-22T04:16:48.383Z,20.9500
2022-12-22T04:17:50.603Z,20.9500
2022-12-22T04:18:52.935Z,20.9600
2022-12-22T04:19:53.122Z,20.9500
2022-12-22T04:20:55.510Z,20.9500
2022-12-22T04:21:57.934Z,20.9400
2022-12-22T04:23:00.379Z,20.9400
2022-12-22T04:24:00.665Z,20.9400
2022-12-22T04:25:03.057Z,20.9400
2022-12-22T04:26:05.468Z,20.9300
2022-12-22T04:27:07.905Z,20.9300
2022-12-22T04:28:08.132Z,20.9300
2022-12-22T04:29:10.580Z,20.9200
2022-12-22T04:30:12.943Z,20.9200
2022-12-22T04:31:15.401Z,20.9300
2022-12-22T04:32:15.786Z,20.9300
2022-12-22T04:33:18.144Z,20.9100
2022-12-22T04:34:20.596Z,20.9100
2022-12-22T04:35:20.856Z,20.9100
2022-12-22T04:36:23.297Z,20.9200
2022-12-22T04:37:25.760Z,20.9200
2022-12-22T04:38:28.147Z,20.9500
2022-12-22T04:39:28.484Z,20.9500
2022-12-22T04:40:30.895Z,20.9600
2022-12-22T04:41:31.218Z,20.9600
2022-12-22T04:42:33.634Z,20.9700
2022-12-22T04:43:36.099Z,20.9700
2022-12-22T04:44:36.439Z,20.9600
2022-12-22T04:45:38.868Z,20.9500
2022-12-22T04:46:41.224Z,20.9600
2022-12-22T04:47:43.632Z,20.9500
2022-12-22T04:48:45.967Z,20.9700
2022-12-22T04:49:46.185Z,20.9500
2022-12-22T04:50:48.555Z,20.9400
2022-12-22T04:51:50.924Z,20.9400
2022-12-22T04:52:53.275Z,20.9500
2022-12-22T04:53:53.508Z,20.9700
2022-12-22T04:54:55.934Z,20.9700
2022-12-22T04:55:58.278Z,20.9800
2022-12-22T04:57:00.613Z,21.0000
2022-12-22T04:58:02.973Z,21.0000
2022-12-22T04:59:03.255Z,20.9800
2022-12-22T05:00:05.761Z,20.9800
2022-12-22T05:01:08.108Z,20.9700
2022-12-22T05:02:10.681Z,20.9600
2022-12-22T05:03:10.851Z,20.9600
2022-12-22T05:04:15.242Z,20.9500
2022-12-22T05:05:15.694Z,20.9500
2022-12-22T05:06:15.948Z,20.9600
2022-12-22T05:07:18.363Z,20.9600
2022-12-22T05:08:20.798Z,20.9600
2022-12-22T05:09:23.216Z,20.9700
2022-12-22T05:10:23.530Z,20.9700
2022-12-22T05:11:25.910Z,20.9800
2022-12-22T05:12:28.319Z,20.9800
2022-12-22T05:13:28.557Z,20.9900
2022-12-22T05:14:30.964Z,21.0000
2022-12-22T05:15:33.409Z,21.0100
2022-12-22T05:16:35.900Z,21.0400
2022-12-22T05:17:36.053Z,21.0800
2022-12-22T05:18:36.357Z,21.1000
2022-12-22T05:19:38.791Z,21.0500
2022-12-22T05:20:41.270Z,21.0200
2022-12-22T05:21:43.661Z,21.0100
2022-12-22T05:22:46.110Z,21.0300
2022-12-22T05:23:48.475Z,21.0300
2022-12-22T05:24:48.743Z,21.0400
2022-12-22T05:25:51.197Z,21.0600
2022-12-22T05:26:53.546Z,21.0600
2022-12-22T05:27:55.918Z,21.0600
2022-12-22T05:28:56.163Z,21.0600
2022-12-22T05:29:58.561Z,21.0800
2022-12-22T05:31:01.116Z,21.0800
2022-12-22T05:32:03.345Z,21.0800
2022-12-22T05:33:03.575Z,21.0900
2022-12-22T05:34:05.927Z,21.1000
2022-12-22T05:35:08.352Z,21.0900
2022-12-22T05:36:10.836Z,21.0900
2022-12-22T05:37:11.089Z,21.0600
2022-12-22T05:38:13.504Z,21.0400
2022-12-22T05:39:15.941Z,21.0500
2022-12-22T05:40:18.314Z,21.0600
2022-12-22T05:41:18.671Z,21.0800
2022-12-22T05:42:20.948Z,21.0600
2022-12-22T05:43:23.366Z,21.0500
2022-12-22T05:44:25.810Z,21.0600
2022-12-22T05:45:26.035Z,21.0700
2022-12-22T05:46:28.564Z,21.0800
2022-12-22T05:47:30.844Z,21.0700
2022-12-22T05:48:38.002Z,21.1200
2022-12-22T05:49:33.498Z,21.0800
2022-12-22T05:50:35.895Z,21.0800
2022-12-22T05:51:38.436Z,21.1100
2022-12-22T05:52:40.696Z,21.1800
2022-12-22T05:53:40.958Z,21.1900
2022-12-22T05:54:43.358Z,21.2000
2022-12-22T05:55:45.755Z,21.1500
2022-12-22T05:56:48.160Z,21.1500
2022-12-22T05:57:48.386Z,21.1200
2022-12-22T05:58:50.756Z,21.1000
2022-12-22T05:59:51.022Z,21.0900
2022-12-22T06:00:51.262Z,21.0900
2022-12-22T06:01:53.852Z,21.0800
2022-12-22T06:02:56.263Z,21.0700
2022-12-22T06:04:00.333Z,21.0700
2022-12-22T06:04:58.874Z,21.0500
2022-12-22T06:06:01.347Z,21.0400
2022-12-22T06:07:02.144Z,21.0400
2022-12-22T06:08:04.073Z,21.0400
2022-12-22T06:09:06.476Z,21.0400
2022-12-22T06:10:11.613Z,21.0400
2022-12-22T06:11:09.200Z,21.0200
2022-12-22T06:12:11.671Z,21.0200
2022-12-22T06:13:14.092Z,21.0300
2022-12-22T06:14:14.371Z,21.0600
2022-12-22T06:15:16.800Z,21.0400
2022-12-22T06:16:19.259Z,21.0500
2022-12-22T06:17:19.609Z,21.0500
2022-12-22T06:18:21.895Z,21.0500
2022-12-22T06:19:24.311Z,21.0500
2022-12-22T06:20:26.734Z,21.0700
2022-12-22T06:21:26.988Z,21.0500
2022-12-22T06:22:29.439Z,21.0600
2022-12-22T06:23:31.853Z,21.0400
2022-12-22T06:24:34.239Z,21.0300
2022-12-22T06:25:34.494Z,21.0200
2022-12-22T06:26:36.860Z,21.0200
2022-12-22T06:27:39.230Z,21.0300
2022-12-22T06:28:41.635Z,21.0100
2022-12-22T06:29:41.872Z,21.0100
2022-12-22T06:30:44.282Z,21.0100
2022-12-22T06:31:46.763Z,21.0300
2022-12-22T06:32:49.129Z,21.0300
2022-12-22T06:33:49.342Z,21.0100
2022-12-22T06:34:51.754Z,21.0200
2022-12-22T06:35:59.163Z,21.0300
2022-12-22T06:36:56.555Z,21.0300
2022-12-22T06:37:56.782Z,21.0200
2022-12-22T06:38:59.119Z,21.0100
2022-12-22T06:40:01.406Z,21.0300
2022-12-22T06:41:04.119Z,21.0200
2022-12-22T06:42:06.158Z,21.0100
2022-12-22T06:43:09.571Z,21.0000
2022-12-22T06:44:10.832Z,20.9900
2022-12-22T06:45:13.232Z,21.0000
2022-12-22T06:46:15.655Z,20.9900
2022-12-22T06:47:15.795Z,20.9800
2022-12-22T06:48:18.248Z,20.9700
2022-12-22T06:49:20.610Z,20.9800
2022-12-22T06:50:23.054Z,20.9900
2022-12-22T06:51:23.368Z,20.9900
2022-12-22T06:52:25.786Z,21.0100
2022-12-22T06:53:28.272Z,21.0100
2022-12-22T06:54:28.523Z,21.0100
2022-12-22T06:55:30.977Z,21.0100
2022-12-22T06:56:33.402Z,21.0100
2022-12-22T06:57:35.860Z,21.0100
2022-12-22T06:58:36.282Z,20.9900
2022-12-22T06:59:38.626Z,20.9800
2022-12-22T07:00:41.058Z,20.9900
2022-12-22T07:01:41.457Z,21.0000
2022-12-22T07:02:43.923Z,21.0100
2022-12-22T07:03:46.323Z,21.0400
2022-12-22T07:04:46.480Z,21.0900
2022-12-22T07:05:48.925Z,21.0900
2022-12-22T07:06:51.345Z,21.0700
2022-12-22T07:07:53.849Z,21.0800
2022-12-22T07:08:54.104Z,21.0700
2022-12-22T07:09:56.498Z,21.0800
2022-12-22T07:10:58.913Z,21.0700
2022-12-22T07:12:01.300Z,21.0600
2022-12-22T07:13:01.592Z,21.0400
2022-12-22T07:14:04.050Z,21.0500
2022-12-22T07:15:06.439Z,21.0200
2022-12-22T07:16:08.937Z,21.0000
2022-12-22T07:17:09.168Z,21.0000
2022-12-22T07:18:11.601Z,21.0000
2022-12-22T07:19:14.158Z,20.9900
2022-12-22T07:20:14.220Z,20.9900
2022-12-22T07:21:16.631Z,20.9900
2022-12-22T07:22:21.701Z,21.0000
2022-12-22T07:23:21.344Z,20.9800
2022-12-22T07:24:21.613Z,21.0000
2022-12-22T07:25:23.989Z,20.9800
2022-12-22T07:26:26.423Z,20.9700
2022-12-22T07:27:26.734Z,20.9700
2022-12-22T07:28:29.171Z,20.9700
2022-12-22T07:29:31.569Z,20.9700
2022-12-22T07:30:33.949Z,20.9700
2022-12-22T07:31:34.310Z,20.9700
2022-12-22T07:32:36.622Z,20.9900
2022-12-22T07:33:39.023Z,20.9800
2022-12-22T07:34:41.482Z,20.9800
2022-12-22T07:35:41.708Z,20.9700
2022-12-22T07:36:44.081Z,20.9800
2022-12-22T07:37:46.482Z,20.9800
2022-12-22T07:38:48.868Z,20.9900
2022-12-22T07:39:49.137Z,20.9900
2022-12-22T07:40:52.388Z,20.9900
2022-12-22T07:41:53.909Z,20.9700
2022-12-22T07:42:56.298Z,20.9900
2022-12-22T07:43:56.560Z,21.0000
2022-12-22T07:44:58.979Z,20.9900
2022-12-22T07:46:01.480Z,20.9900
2022-12-22T07:47:03.852Z,20.9900
2022-12-22T07:48:04.011Z,21.0000
2022-12-22T07:49:06.422Z,20.9700
2022-12-22T07:50:09.082Z,20.9700
2022-12-22T07:51:11.215Z,20.9800
2022-12-22T07:52:11.485Z,20.9900
2022-12-22T07:53:13.841Z,21.0000
2022-12-22T07:54:16.197Z,21.0100
2022-12-22T07:55:18.613Z,21.0100
2022-12-22T07:56:20.989Z,21.0100
2022-12-22T07:57:21.237Z,21.0000
2022-12-22T07:58:23.599Z,21.0000
2022-12-22T07:59:25.979Z,21.0100
2022-12-22T08:00:26.453Z,21.0100
2022-12-22T08:01:28.687Z,21.0100
2022-12-22T08:02:36.876Z,21.0100
2022-12-22T08:05:23.183Z,20.9400
2022-12-22T08:06:25.480Z,20.9700
2022-12-22T08:07:27.797Z,20.9800
2022-12-22T08:08:30.159Z,21.0000
2022-12-22T08:09:32.473Z,21.0100
2022-12-22T08:10:32.686Z,21.0200
2022-12-22T08:11:35.101Z,21.0300
2022-12-22T08:12:37.488Z,21.0400
2022-12-22T08:13:39.775Z,21.0400
2022-12-22T08:14:42.192Z,21.0400
2022-12-22T08:15:42.445Z,21.0400
2022-12-22T08:16:45.000Z,21.0500
2022-12-22T08:17:47.256Z,21.0600
2022-12-22T08:18:49.689Z,21.0600
2022-12-22T08:19:49.932Z,21.0600
2022-12-22T08:20:52.390Z,21.0600
2022-12-22T08:21:54.902Z,21.0400
2022-12-22T08:22:57.188Z,21.0600
2022-12-22T08:23:57.412Z,21.0700
2022-12-22T08:24:59.848Z,21.0600
2022-12-22T08:26:02.171Z,21.0600
2022-12-22T08:27:05.550Z,21.0700
2022-12-22T08:28:04.776Z,21.0900
2022-12-22T08:29:07.115Z,21.0500
2022-12-22T08:30:09.490Z,21.2100
2022-12-22T08:31:11.948Z,21.4200
2022-12-22T08:32:12.196Z,21.4700
2022-12-22T08:33:14.554Z,21.5000
2022-12-22T08:34:16.943Z,21.6000
2022-12-22T08:35:19.354Z,21.5500
2022-12-22T08:36:19.640Z,21.5200
2022-12-22T08:37:22.064Z,21.6000
2022-12-22T08:38:24.429Z,21.6600
2022-12-22T08:39:26.805Z,21.6000
2022-12-22T08:40:26.990Z,21.7600
2022-12-22T08:41:29.310Z,21.6200
2022-12-22T08:42:31.762Z,21.5900
2022-12-22T08:43:33.894Z,21.7000
2022-12-22T08:44:36.178Z,21.7600
2022-12-22T08:45:38.494Z,21.6600
2022-12-22T08:46:38.701Z,21.7700
2022-12-22T08:47:40.955Z,21.8200
2022-12-22T08:48:43.255Z,21.8200
2022-12-22T08:49:45.531Z,21.8300
2022-12-22T08:50:47.828Z,21.8700
2022-12-22T08:51:50.179Z,21.7500
2022-12-22T08:52:50.363Z,21.6200
2022-12-22T08:54:07.791Z,21.5400
2022-12-22T08:54:54.954Z,21.4800
2022-12-22T08:55:57.310Z,21.4800
2022-12-22T08:56:59.660Z,21.4400
2022-12-22T08:58:03.047Z,21.4000
2022-12-22T08:59:02.241Z,21.3700
2022-12-22T09:00:04.593Z,21.3700
2022-12-22T09:01:07.016Z,21.3900
2022-12-22T09:02:09.381Z,21.3600
2022-12-22T09:03:11.729Z,21.3400
2022-12-22T09:04:11.827Z,21.3000
2022-12-22T09:05:14.096Z,21.2900
2022-12-22T09:06:16.399Z,21.2900
2022-12-22T09:07:18.765Z,21.2800
2022-12-22T09:08:19.045Z,21.2800
2022-12-22T09:09:19.212Z,21.2900
2022-12-22T09:10:21.719Z,21.2700
2022-12-22T09:11:24.086Z,21.2700
2022-12-22T09:12:26.521Z,21.2600
2022-12-22T09:13:26.848Z,21.2700
2022-12-22T09:14:29.221Z,21.2600
2022-12-22T09:15:31.592Z,21.2400
2022-12-22T09:16:34.145Z,21.2600
2022-12-22T09:17:34.315Z,21.2400
2022-12-22T09:18:36.784Z,21.2500
2022-12-22T09:19:39.331Z,21.2500
2022-12-22T09:20:41.587Z,21.2500
2022-12-22T09:21:44.000Z,21.2500
2022-12-22T09:22:46.440Z,21.2400
2022-12-22T09:23:46.728Z,21.2500
2022-12-22T09:24:49.067Z,21.2600
2022-12-22T09:25:51.422Z,21.2500
2022-12-22T09:26:53.783Z,21.2500
2022-12-22T09:27:54.008Z,21.2500
2022-12-22T09:28:58.152Z,21.2700
2022-12-22T09:29:58.823Z,21.2700
2022-12-22T09:31:01.261Z,21.2900
2022-12-22T09:32:01.529Z,21.3000
2022-12-22T09:33:03.893Z,21.2900
2022-12-22T09:34:09.542Z,21.2800
2022-12-22T09:35:08.678Z,21.2800
2022-12-22T09:36:08.919Z,21.2600
2022-12-22T09:37:11.378Z,21.2500
2022-12-22T09:38:13.824Z,21.2300
2022-12-22T09:39:16.079Z,21.2300
2022-12-22T09:40:16.505Z,21.2300
2022-12-22T09:41:18.931Z,21.2600
2022-12-22T09:42:21.334Z,21.2700
2022-12-22T09:43:21.596Z,21.2700
2022-12-22T09:44:23.995Z,21.2700
2022-12-22T09:45:26.412Z,21.2800
2022-12-22T09:46:28.892Z,21.3000
2022-12-22T09:47:29.047Z,21.3000
2022-12-22T09:48:31.385Z,21.3000
2022-12-22T09:51:04.250Z,21.2600
2022-12-22T09:52:06.498Z,21.2900
2022-12-22T09:53:08.860Z,21.3000
2022-12-22T09:54:11.251Z,21.3000
2022-12-22T09:55:13.588Z,21.3000
2022-12-22T09:56:13.982Z,21.3200
2022-12-22T09:57:16.160Z,21.3200
2022-12-22T09:58:25.763Z,21.3100
2022-12-22T09:59:20.909Z,21.3000
2022-12-22T10:00:21.067Z,21.3300
2022-12-22T10:01:23.463Z,21.3400
2022-12-22T10:02:25.796Z,21.3400
2022-12-22T10:03:28.090Z,21.3500
2022-12-22T10:04:30.325Z,21.4100
2022-12-22T10:05:32.570Z,21.4600
2022-12-22T10:06:32.762Z,21.4900
2022-12-22T10:07:35.026Z,21.4800
2022-12-22T10:08:37.371Z,21.4600
2022-12-22T10:09:50.867Z,21.5000
2022-12-22T10:10:42.018Z,21.4400
2022-12-22T10:11:44.465Z,21.4400
2022-12-22T10:12:44.500Z,21.5100
2022-12-22T10:13:46.856Z,21.5900
2022-12-22T10:14:49.238Z,21.6500
2022-12-22T10:15:51.605Z,21.6900
2022-12-22T10:16:54.167Z,21.6900
2022-12-22T10:17:54.234Z,21.7300
2022-12-22T10:18:56.598Z,21.7500
2022-12-22T10:19:58.951Z,21.7600
2022-12-22T10:21:01.333Z,21.7400
2022-12-22T10:22:01.652Z,21.7900
2022-12-22T10:23:03.808Z,21.8600
2022-12-22T10:24:06.087Z,21.9400
2022-12-22T10:25:08.431Z,21.9300
2022-12-22T10:26:28.759Z,21.9200
2022-12-22T10:27:10.907Z,21.8300
2022-12-22T10:28:13.168Z,21.9000
2022-12-22T10:29:15.476Z,21.9500
2022-12-22T10:30:17.896Z,22.0300
2022-12-22T10:31:20.338Z,22.0300
2022-12-22T10:32:20.319Z,21.9300
2022-12-22T10:33:22.523Z,21.8600
2022-12-22T10:34:24.742Z,21.8800
2022-12-22T10:35:27.000Z,21.8500
2022-12-22T10:36:29.229Z,21.8600
2022-12-22T10:37:31.440Z,21.8500
2022-12-22T10:38:33.629Z,21.8400
2022-12-22T10:39:35.880Z,21.8300
2022-12-22T10:40:38.134Z,21.8400
2022-12-22T10:41:40.374Z,21.9200
2022-12-22T10:42:40.472Z,21.9900
2022-12-22T10:43:42.658Z,21.9300
2022-12-22T10:44:44.876Z,21.9000
2022-12-22T10:45:47.149Z,21.8700
2022-12-22T10:46:49.414Z,21.9200
2022-12-22T10:47:51.842Z,21.8500
2022-12-22T10:48:54.056Z,21.8700
2022-12-22T10:50:56.577Z,21.8400
2022-12-22T10:50:56.577Z,21.8400
2022-12-22T10:51:58.912Z,21.8400
2022-12-22T10:53:01.347Z,21.9300
2022-12-22T10:54:03.703Z,21.9200
2022-12-22T10:55:06.054Z,21.9300
2022-12-22T10:56:06.305Z,21.9600
2022-12-22T10:57:08.601Z,22.0300
2022-12-22T10:58:11.024Z,21.9400
2022-12-22T10:59:13.369Z,21.8500
2022-12-22T11:00:13.662Z,21.9300
2022-12-22T11:01:16.092Z,21.9800
2022-12-22T11:02:18.584Z,21.8900
2022-12-22T11:03:24.630Z,21.8200
2022-12-22T11:04:20.945Z,21.8000
2022-12-22T11:05:23.319Z,21.8600
2022-12-22T11:06:25.623Z,21.8300
2022-12-22T11:07:27.973Z,21.8100
2022-12-22T11:08:28.225Z,21.8500
2022-12-22T11:09:34.971Z,21.9400
2022-12-22T11:10:32.818Z,21.9900
2022-12-22T11:11:35.141Z,22.0900
2022-12-22T11:12:37.454Z,22.1300
2022-12-22T11:13:39.766Z,22.2100
2022-12-22T11:14:39.957Z,22.3400
2022-12-22T11:15:42.336Z,22.4200
2022-12-22T11:16:44.802Z,22.4200
2022-12-22T11:17:47.092Z,22.4100
2022-12-22T11:18:47.366Z,22.4100
2022-12-22T11:19:49.710Z,22.3800
2022-12-22T11:20:52.095Z,22.4200
2022-12-22T11:21:54.466Z,22.4400
2022-12-22T11:22:56.840Z,22.4700
2022-12-22T11:23:57.108Z,22.5100
2022-12-22T11:24:59.461Z,22.4800
2022-12-22T11:26:01.834Z,22.4400
2022-12-22T11:27:04.231Z,22.4400
2022-12-22T11:28:04.428Z,22.4200
2022-12-22T11:29:06.793Z,22.3900
2022-12-22T11:30:09.118Z,22.3700
2022-12-22T11:31:11.527Z,22.3300
2022-12-22T11:32:13.751Z,22.3100
2022-12-22T11:33:13.901Z,22.3000
2022-12-22T11:34:20.988Z,22.3200
2022-12-22T11:35:16.427Z,22.3100
2022-12-22T11:36:18.719Z,22.3200
2022-12-22T11:37:21.047Z,22.3400
2022-12-22T11:38:23.355Z,22.3400
2022-12-22T11:39:23.600Z,22.3600
2022-12-22T11:40:25.886Z,22.3700
2022-12-22T11:41:28.213Z,22.3800
2022-12-22T11:42:30.551Z,22.3800
2022-12-22T11:43:32.840Z,22.4000
2022-12-22T11:44:35.159Z,22.4100
2022-12-22T11:45:42.964Z,22.4100
2022-12-22T11:46:39.722Z,22.3900
2022-12-22T11:47:41.888Z,22.4400
2022-12-22T11:48:44.157Z,22.4400
2022-12-22T11:49:46.549Z,22.4700
2022-12-22T11:51:09.245Z,22.4700
2022-12-22T11:51:48.988Z,22.4600
2022-12-22T11:52:51.322Z,22.4800
2022-12-22T11:53:53.685Z,22.5200
2022-12-22T11:54:56.079Z,22.5400
2022-12-22T11:55:58.429Z,22.5400
2022-12-22T11:56:58.644Z,22.5200
2022-12-22T11:58:01.054Z,22.5100
2022-12-22T11:59:03.424Z,22.5100
2022-12-22T12:00:05.871Z,22.5100
2022-12-22T12:01:19.067Z,22.5100
2022-12-22T12:02:08.437Z,22.5100
2022-12-22T12:03:10.830Z,22.5000
2022-12-22T12:04:13.184Z,22.5000
2022-12-22T12:05:13.377Z,22.5300
2022-12-22T12:06:15.729Z,22.5400
2022-12-22T12:07:23.581Z,22.5500
2022-12-22T12:08:20.449Z,22.5600
2022-12-22T12:09:21.676Z,22.5600
2022-12-22T12:10:21.898Z,22.4900
2022-12-22T12:11:23.193Z,22.4600
2022-12-22T12:12:25.553Z,22.5400
2022-12-22T12:13:34.834Z,22.6500
2022-12-22T12:14:30.138Z,22.6700
2022-12-22T12:15:32.460Z,22.6700
2022-12-22T12:16:34.834Z,22.6200
2022-12-22T12:17:34.871Z,22.6200
2022-12-22T12:18:37.213Z,22.6800
2022-12-22T12:19:39.501Z,22.7700
2022-12-22T12:20:41.831Z,22.8100
2022-12-22T12:21:44.197Z,22.8400
2022-12-22T12:22:46.453Z,22.8900
2022-12-22T12:23:46.614Z,22.8900
2022-12-22T12:24:48.936Z,22.8800
2022-12-22T12:25:51.270Z,22.8800
2022-12-22T12:26:53.575Z,22.8800
2022-12-22T12:27:55.883Z,22.8900
2022-12-22T12:28:56.088Z,22.9000
2022-12-22T12:30:35.804Z,22.8900
2022-12-22T12:31:00.788Z,22.8600
2022-12-22T12:32:03.150Z,22.8700
2022-12-22T12:33:05.298Z,22.8500